createdAt,value
2023-04-23T00:01:17.297Z,17.19
2023-04-23T00:03:24.342Z,17.15
2023-04-23T00:05:31.025Z,17.13
2023-04-23T00:07:43.556Z,17.11
2023-04-23T00:09:53.129Z,17.10
2023-04-23T00:11:58.598Z,17.07
2023-04-23T00:14:07.683Z,17.04
2023-04-23T00:16:14.182Z,17.05
2023-04-23T00:18:20.293Z,17.06
2023-04-23T00:20:25.800Z,17.07
2023-04-23T00:22:30.883Z,17.07
2023-04-23T00:24:39.276Z,17.07
2023-04-23T00:26:47.391Z,17.09
2023-04-23T00:28:52.247Z,17.07
2023-04-23T00:30:57.156Z,17.06
2023-04-23T00:33:02.154Z,17.04
2023-04-23T00:35:08.345Z,17.00
2023-04-23T00:37:13.223Z,16.97
2023-04-23T00:39:18.178Z,16.90
2023-04-23T00:41:24.081Z,16.85
2023-04-23T00:43:31.560Z,16.74
2023-04-23T00:45:36.823Z,16.67
2023-04-23T00:47:43.655Z,16.57
2023-04-23T00:49:48.837Z,16.41
2023-04-23T00:51:53.757Z,16.24
2023-04-23T00:53:59.080Z,16.19
2023-04-23T00:56:06.778Z,16.14
2023-04-23T00:58:11.872Z,16.16
2023-04-23T01:00:20.635Z,16.17
2023-04-23T01:02:28.211Z,16.25
2023-04-23T01:04:35.013Z,16.26
2023-04-23T01:06:43.423Z,16.20
2023-04-23T01:08:49.961Z,16.22
2023-04-23T01:10:56.170Z,16.21
2023-04-23T01:13:01.931Z,16.21
2023-04-23T01:15:09.169Z,16.20
2023-04-23T01:17:17.399Z,16.23
2023-04-23T01:19:22.326Z,16.27
2023-04-23T01:21:28.554Z,16.35
2023-04-23T01:23:36.248Z,16.42
2023-04-23T01:25:42.986Z,16.47
2023-04-23T01:27:48.035Z,16.48
2023-04-23T01:29:52.730Z,16.47
2023-04-23T01:31:58.633Z,16.47
2023-04-23T01:34:03.860Z,16.51
2023-04-23T01:36:08.736Z,16.49
2023-04-23T01:38:14.491Z,16.51
2023-04-23T01:40:22.593Z,16.53
2023-04-23T01:42:27.526Z,16.53
2023-04-23T01:44:32.612Z,16.51
2023-04-23T01:46:37.971Z,16.47
2023-04-23T01:48:43.434Z,16.46
2023-04-23T01:50:48.401Z,16.47
2023-04-23T01:52:53.454Z,16.45
2023-04-23T01:54:58.408Z,16.43
2023-04-23T01:57:06.126Z,16.45
2023-04-23T01:59:11.091Z,16.49
2023-04-23T02:01:16.008Z,16.51
2023-04-23T02:03:21.302Z,16.51
2023-04-23T02:05:28.449Z,16.54
2023-04-23T02:07:33.780Z,16.54
2023-04-23T02:09:38.708Z,16.53
2023-04-23T02:11:43.866Z,16.54
2023-04-23T02:13:51.363Z,16.52
2023-04-23T02:15:56.424Z,16.50
2023-04-23T02:18:01.421Z,16.33
2023-04-23T02:20:06.891Z,16.29
2023-04-23T02:22:12.078Z,16.18
2023-04-23T02:24:17.015Z,16.10
2023-04-23T02:26:23.008Z,16.02
2023-04-23T02:28:27.964Z,15.95
2023-04-23T02:30:35.787Z,15.89
2023-04-23T02:32:41.970Z,15.89
2023-04-23T02:34:46.957Z,15.95
2023-04-23T02:36:51.933Z,16.03
2023-04-23T02:38:56.814Z,16.04
2023-04-23T02:41:01.739Z,16.06
2023-04-23T02:43:06.728Z,16.01
2023-04-23T02:45:12.548Z,15.93
2023-04-23T02:47:20.099Z,15.95
2023-04-23T02:49:27.416Z,15.95
2023-04-23T02:51:32.613Z,15.81
2023-04-23T02:53:37.604Z,15.76
2023-04-23T02:55:42.552Z,15.72
2023-04-23T02:57:48.046Z,15.73
2023-04-23T02:59:53.026Z,15.71
2023-04-23T03:02:02.155Z,15.69
2023-04-23T03:04:09.867Z,15.56
2023-04-23T03:06:14.956Z,15.48
2023-04-23T03:08:19.882Z,15.42
2023-04-23T03:10:24.769Z,15.30
2023-04-23T03:12:29.835Z,15.30
2023-04-23T03:14:34.746Z,15.29
2023-04-23T03:16:39.807Z,15.13
2023-04-23T03:18:45.030Z,15.13
2023-04-23T03:20:52.617Z,15.17
2023-04-23T03:22:57.523Z,15.10
2023-04-23T03:25:02.398Z,15.05
2023-04-23T03:27:10.322Z,14.99
2023-04-23T03:29:15.239Z,14.91
2023-04-23T03:31:20.306Z,14.79
2023-04-23T03:33:25.897Z,14.66
2023-04-23T03:35:30.756Z,14.58
2023-04-23T03:37:42.624Z,14.57
2023-04-23T03:39:47.683Z,14.53
2023-04-23T03:41:53.543Z,14.55
2023-04-23T03:44:02.819Z,14.57
2023-04-23T03:46:18.246Z,14.56
2023-04-23T03:48:23.512Z,14.51
2023-04-23T03:50:29.816Z,14.49
2023-04-23T03:52:50.158Z,14.51
2023-04-23T03:55:12.464Z,14.46
2023-04-23T03:57:21.668Z,14.40
2023-04-23T03:59:35.999Z,14.35
2023-04-23T04:01:40.998Z,14.36
2023-04-23T04:03:46.190Z,14.36
2023-04-23T04:05:51.455Z,14.35
2023-04-23T04:07:59.008Z,14.37
2023-04-23T04:10:07.137Z,14.42
2023-04-23T04:12:12.450Z,14.56
2023-04-23T04:14:17.519Z,14.63
2023-04-23T04:16:22.470Z,14.74
2023-04-23T04:18:27.288Z,14.77
2023-04-23T04:20:32.312Z,14.78
2023-04-23T04:22:37.009Z,14.81
2023-04-23T04:24:47.768Z,14.82
2023-04-23T04:26:52.885Z,14.60
2023-04-23T04:28:58.561Z,14.55
2023-04-23T04:31:03.605Z,14.42
2023-04-23T04:33:09.087Z,14.26
2023-04-23T04:35:14.686Z,14.25
2023-04-23T04:37:20.922Z,14.28
2023-04-23T04:39:26.483Z,14.20
2023-04-23T04:41:33.971Z,14.21
2023-04-23T04:43:39.164Z,14.32
2023-04-23T04:45:44.948Z,14.31
2023-04-23T04:47:49.910Z,14.28
2023-04-23T04:49:57.695Z,14.29
2023-04-23T04:52:04.175Z,14.30
2023-04-23T04:54:09.459Z,14.30
2023-04-23T04:56:14.370Z,14.40
2023-04-23T04:58:21.849Z,14.60
2023-04-23T05:00:29.704Z,14.74
2023-04-23T05:02:35.110Z,14.81
2023-04-23T05:04:40.434Z,14.90
2023-04-23T05:06:45.580Z,14.99
2023-04-23T05:08:50.946Z,15.06
2023-04-23T05:10:56.779Z,15.05
2023-04-23T05:13:02.876Z,15.08
2023-04-23T05:15:13.482Z,15.19
2023-04-23T05:17:18.409Z,15.08
2023-04-23T05:19:23.880Z,15.17
2023-04-23T05:21:29.849Z,15.10
2023-04-23T05:23:34.808Z,15.13
2023-04-23T05:25:39.721Z,15.22
2023-04-23T05:27:44.905Z,15.21
2023-04-23T05:29:49.568Z,15.15
2023-04-23T05:31:57.298Z,15.17
2023-04-23T05:34:02.242Z,15.10
2023-04-23T05:36:08.522Z,15.03
2023-04-23T05:38:13.451Z,15.10
2023-04-23T05:40:18.377Z,15.15
2023-04-23T05:42:23.459Z,15.11
2023-04-23T05:44:28.301Z,15.15
2023-04-23T05:46:33.245Z,15.20
2023-04-23T05:48:40.793Z,15.23
2023-04-23T05:50:45.869Z,15.23
2023-04-23T05:52:50.900Z,15.16
2023-04-23T05:54:55.822Z,15.14
2023-04-23T05:57:01.136Z,15.21
2023-04-23T05:59:06.366Z,15.21
2023-04-23T06:01:11.045Z,15.21
2023-04-23T06:03:16.892Z,15.30
2023-04-23T06:05:24.845Z,15.35
2023-04-23T06:07:29.896Z,15.31
2023-04-23T06:09:36.035Z,15.34
2023-04-23T06:11:41.243Z,15.37
2023-04-23T06:13:45.846Z,15.37
2023-04-23T06:15:50.850Z,15.40
2023-04-23T06:17:56.009Z,15.46
2023-04-23T06:20:00.727Z,15.41
2023-04-23T06:22:08.417Z,15.41
2023-04-23T06:24:13.373Z,15.39
2023-04-23T06:26:18.335Z,15.37
2023-04-23T06:28:25.495Z,15.40
2023-04-23T06:30:59.567Z,15.45
2023-04-23T06:33:05.240Z,15.42
2023-04-23T06:35:10.921Z,15.40
2023-04-23T06:37:18.544Z,15.40
2023-04-23T06:39:23.778Z,15.30
2023-04-23T06:41:29.024Z,15.30
2023-04-23T06:43:51.761Z,15.32
2023-04-23T06:46:06.392Z,15.40
2023-04-23T06:48:11.372Z,15.48
2023-04-23T06:50:16.359Z,15.51
2023-04-23T06:52:23.868Z,15.54
2023-04-23T06:54:28.991Z,15.60
2023-04-23T06:56:33.573Z,15.58
2023-04-23T06:58:39.307Z,15.60
2023-04-23T07:00:52.393Z,15.71
2023-04-23T07:02:57.629Z,15.79
2023-04-23T07:05:02.764Z,15.72
2023-04-23T07:07:08.807Z,15.71
2023-04-23T07:09:16.341Z,15.71
2023-04-23T07:11:21.386Z,15.72
2023-04-23T07:13:26.991Z,15.75
2023-04-23T07:15:31.978Z,15.81
2023-04-23T07:17:37.022Z,15.77
2023-04-23T07:19:42.486Z,15.74
2023-04-23T07:21:47.386Z,15.80
2023-04-23T07:23:52.308Z,15.74
2023-04-23T07:25:59.743Z,15.75
2023-04-23T07:28:06.781Z,15.77
2023-04-23T07:30:12.677Z,15.86
2023-04-23T07:32:17.643Z,15.90
2023-04-23T07:34:22.561Z,15.93
2023-04-23T07:36:27.988Z,15.97
2023-04-23T07:38:32.934Z,16.02
2023-04-23T07:40:37.799Z,16.00
2023-04-23T07:42:45.318Z,16.17
2023-04-23T07:44:50.210Z,16.29
2023-04-23T07:46:55.232Z,16.54
2023-04-23T07:49:00.195Z,16.73
2023-04-23T07:51:06.734Z,16.91
2023-04-23T07:53:11.641Z,16.97
2023-04-23T07:55:16.586Z,16.90
2023-04-23T07:57:21.765Z,16.61
2023-04-23T07:59:29.021Z,16.31
2023-04-23T08:01:35.781Z,16.37
2023-04-23T08:03:40.867Z,16.41
2023-04-23T08:05:46.294Z,16.44
2023-04-23T08:07:51.376Z,16.38
2023-04-23T08:09:56.288Z,16.30
2023-04-23T08:12:02.249Z,16.24
2023-04-23T08:14:07.432Z,15.90
2023-04-23T08:16:14.764Z,15.65
2023-04-23T08:18:19.727Z,15.38
2023-04-23T08:20:24.715Z,15.28
2023-04-23T08:22:29.716Z,15.01
2023-04-23T08:24:34.793Z,14.92
2023-04-23T08:26:39.657Z,14.85
2023-04-23T08:28:44.814Z,14.58
2023-04-23T08:30:49.650Z,14.40
2023-04-23T08:32:57.570Z,14.36
2023-04-23T08:35:02.565Z,14.31
2023-04-23T08:37:13.926Z,14.34
2023-04-23T08:39:24.764Z,14.36
2023-04-23T08:41:37.225Z,14.46
2023-04-23T08:43:47.826Z,14.54
2023-04-23T08:45:52.840Z,14.66
2023-04-23T08:48:03.600Z,14.85
2023-04-23T08:50:10.495Z,15.13
2023-04-23T08:52:20.660Z,15.27
2023-04-23T08:54:29.900Z,15.40
2023-04-23T08:56:37.361Z,15.46
2023-04-23T08:58:44.563Z,15.55
2023-04-23T09:00:50.591Z,15.79
2023-04-23T09:02:56.230Z,16.09
2023-04-23T09:05:05.884Z,16.23
2023-04-23T09:07:11.722Z,16.33
2023-04-23T09:09:19.543Z,16.39
2023-04-23T09:11:29.958Z,16.54
2023-04-23T09:13:36.690Z,16.70
2023-04-23T09:15:43.829Z,16.71
2023-04-23T09:17:50.390Z,16.87
2023-04-23T09:19:57.586Z,16.84
2023-04-23T09:22:04.994Z,16.72
2023-04-23T09:24:15.024Z,16.79
2023-04-23T09:26:23.760Z,16.94
2023-04-23T09:28:38.129Z,17.07
2023-04-23T09:30:45.933Z,17.17
2023-04-23T09:32:51.116Z,17.39
2023-04-23T09:34:59.048Z,17.57
2023-04-23T09:37:08.194Z,17.86
2023-04-23T09:39:16.394Z,18.03
2023-04-23T09:41:25.661Z,18.19
2023-04-23T09:43:33.299Z,18.27
2023-04-23T09:45:38.288Z,18.33
2023-04-23T09:47:44.781Z,18.45
2023-04-23T09:49:50.677Z,18.41
2023-04-23T09:51:55.625Z,18.47
2023-04-23T09:54:04.880Z,18.59
2023-04-23T09:56:10.791Z,18.66
2023-04-23T09:58:17.268Z,18.88
2023-04-23T10:00:26.053Z,18.98
2023-04-23T10:02:34.101Z,19.11
2023-04-23T10:04:39.413Z,19.27
2023-04-23T10:06:53.509Z,19.27
2023-04-23T10:09:12.756Z,19.30
2023-04-23T10:11:21.086Z,19.31
2023-04-23T10:13:27.092Z,19.33
2023-04-23T10:15:32.002Z,19.43
2023-04-23T10:17:38.266Z,19.67
2023-04-23T10:19:45.738Z,19.89
2023-04-23T10:21:56.219Z,19.89
2023-04-23T10:24:05.383Z,20.02
2023-04-23T10:26:17.814Z,20.08
2023-04-23T10:28:29.340Z,20.22
2023-04-23T10:30:34.277Z,20.36
2023-04-23T10:32:40.617Z,20.27
2023-04-23T10:34:45.758Z,20.24
2023-04-23T10:36:50.996Z,20.11
2023-04-23T10:39:01.933Z,20.18
2023-04-23T10:41:13.768Z,20.24
2023-04-23T10:43:19.071Z,20.19
2023-04-23T10:45:25.753Z,20.22
2023-04-23T10:47:31.014Z,20.24
2023-04-23T10:49:36.218Z,20.21
2023-04-23T10:53:51.351Z,20.24
2023-04-23T10:56:09.586Z,20.04
2023-04-23T10:58:17.130Z,20.07
2023-04-23T11:00:22.134Z,20.12
2023-04-23T11:02:27.961Z,20.26
2023-04-23T11:04:33.243Z,20.38
2023-04-23T11:07:07.649Z,20.52
2023-04-23T11:09:34.314Z,20.54
2023-04-23T11:11:43.136Z,20.57
2023-04-23T11:13:58.527Z,20.65
2023-04-23T11:16:18.801Z,20.77
2023-04-23T11:18:26.955Z,20.83
2023-04-23T11:20:31.943Z,20.93
2023-04-23T11:22:37.665Z,20.87
2023-04-23T11:24:49.510Z,20.77
2023-04-23T11:26:56.512Z,20.77
2023-04-23T11:29:04.648Z,20.85
2023-04-23T11:31:09.700Z,20.78
2023-04-23T11:33:14.608Z,20.83
2023-04-23T11:35:21.121Z,20.92
2023-04-23T11:37:27.308Z,21.01
2023-04-23T11:39:32.271Z,21.08
2023-04-23T11:41:38.332Z,21.02
2023-04-23T11:43:45.886Z,20.96
2023-04-23T11:45:53.455Z,20.94
2023-04-23T11:47:59.997Z,20.96
2023-04-23T11:50:05.029Z,20.89
2023-04-23T11:52:10.082Z,20.89
2023-04-23T11:54:15.149Z,20.83
2023-04-23T11:56:20.438Z,20.82
2023-04-23T11:58:25.462Z,20.95
2023-04-23T12:00:30.567Z,21.05
2023-04-23T12:02:37.886Z,20.92
2023-04-23T12:04:42.871Z,20.94
2023-04-23T12:06:49.451Z,20.96
2023-04-23T12:08:54.489Z,20.97
2023-04-23T12:11:06.425Z,20.97
2023-04-23T12:13:16.775Z,20.96
2023-04-23T12:15:22.196Z,20.98
2023-04-23T12:17:27.089Z,21.03
2023-04-23T12:19:34.723Z,21.07
2023-04-23T12:21:51.287Z,21.11
2023-04-23T12:23:56.207Z,21.17
2023-04-23T12:26:01.174Z,21.09
2023-04-23T12:28:07.767Z,21.07
2023-04-23T12:30:14.804Z,21.08
2023-04-23T12:32:23.132Z,21.10
2023-04-23T12:34:28.376Z,21.21
2023-04-23T12:36:35.985Z,21.24
2023-04-23T12:38:42.932Z,21.38
2023-04-23T12:40:47.770Z,21.54
2023-04-23T12:42:52.654Z,21.57
2023-04-23T12:44:58.195Z,21.64
2023-04-23T12:47:06.087Z,21.62
2023-04-23T12:49:10.999Z,21.52
2023-04-23T12:51:16.041Z,21.45
2023-04-23T12:53:23.639Z,21.31
2023-04-23T12:55:28.540Z,21.23
2023-04-23T12:57:33.755Z,21.20
2023-04-23T12:59:38.680Z,21.15
2023-04-23T13:01:43.742Z,21.05
2023-04-23T13:03:48.556Z,20.91
2023-04-23T13:05:53.619Z,20.74
2023-04-23T13:07:58.508Z,20.75
2023-04-23T13:10:06.053Z,20.66
2023-04-23T13:12:10.918Z,20.63
2023-04-23T13:14:15.877Z,20.61
2023-04-23T13:16:20.793Z,20.67
2023-04-23T13:18:25.839Z,20.75
2023-04-23T13:20:30.801Z,20.76
2023-04-23T13:22:35.722Z,20.78
2023-04-23T13:24:40.827Z,20.83
2023-04-23T13:26:48.164Z,20.85
2023-04-23T13:28:53.437Z,20.96
2023-04-23T13:30:58.068Z,20.91
2023-04-23T13:33:04.228Z,20.89
2023-04-23T13:35:10.566Z,20.82
2023-04-23T13:37:15.513Z,20.73
2023-04-23T13:39:20.617Z,20.71
2023-04-23T13:41:25.277Z,20.58
2023-04-23T13:43:32.883Z,20.62
2023-04-23T13:45:37.886Z,20.73
2023-04-23T13:47:43.084Z,20.92
2023-04-23T13:49:47.796Z,20.96
2023-04-23T13:51:54.307Z,21.02
2023-04-23T13:53:59.426Z,21.01
2023-04-23T13:56:04.094Z,20.91
2023-04-23T13:58:12.135Z,20.80
2023-04-23T14:00:20.921Z,20.77
2023-04-23T14:02:26.694Z,20.65
2023-04-23T14:04:31.635Z,20.64
2023-04-23T14:06:36.634Z,20.60
2023-04-23T14:08:42.183Z,20.60
2023-04-23T14:10:47.158Z,20.63
2023-04-23T14:12:52.255Z,20.52
2023-04-23T14:14:56.894Z,20.46
2023-04-23T14:17:05.802Z,20.49
2023-04-23T14:19:10.704Z,20.48
2023-04-23T14:21:16.512Z,20.51
2023-04-23T14:23:48.579Z,20.57
2023-04-23T14:26:00.793Z,20.60
2023-04-23T14:28:37.436Z,20.68
2023-04-23T14:30:43.632Z,20.70
2023-04-23T14:32:51.333Z,20.77
2023-04-23T14:34:56.344Z,20.72
2023-04-23T14:37:01.302Z,20.66
2023-04-23T14:39:07.451Z,20.69
2023-04-23T14:41:12.284Z,20.69
2023-04-23T14:43:17.356Z,20.72
2023-04-23T14:45:22.270Z,20.81
2023-04-23T14:47:27.345Z,20.77
2023-04-23T14:49:34.697Z,20.75
2023-04-23T14:51:39.794Z,20.73
2023-04-23T14:53:46.552Z,20.67
2023-04-23T14:55:51.535Z,20.68
2023-04-23T14:57:56.403Z,20.73
2023-04-23T15:00:01.671Z,20.62
2023-04-23T15:02:08.953Z,20.56
2023-04-23T15:04:14.438Z,20.68
2023-04-23T15:06:22.043Z,20.77
2023-04-23T15:08:26.991Z,20.89
2023-04-23T15:10:31.914Z,21.27
2023-04-23T15:12:40.755Z,21.31
2023-04-23T15:14:49.070Z,21.36
2023-04-23T15:16:54.974Z,21.36
2023-04-23T15:19:00.136Z,21.51
2023-04-23T15:21:05.779Z,21.83
2023-04-23T15:23:13.440Z,22.07
2023-04-23T15:25:19.246Z,22.37
2023-04-23T15:27:24.493Z,22.47
2023-04-23T15:29:30.249Z,22.46
2023-04-23T15:31:35.278Z,22.59
2023-04-23T15:33:41.171Z,22.68
2023-04-23T15:35:47.688Z,22.76
2023-04-23T15:37:53.146Z,22.94
2023-04-23T15:40:01.298Z,23.09
2023-04-23T15:42:06.549Z,23.10
2023-04-23T15:44:13.627Z,22.97
2023-04-23T15:46:18.564Z,22.98
2023-04-23T15:48:24.402Z,22.87
2023-04-23T15:50:29.505Z,22.65
2023-04-23T15:52:34.235Z,22.46
2023-04-23T15:54:39.107Z,22.54
2023-04-23T15:56:46.447Z,22.55
2023-04-23T15:58:52.065Z,22.66
2023-04-23T16:00:57.127Z,22.64
2023-04-23T16:03:04.769Z,22.50
2023-04-23T16:05:10.449Z,22.38
2023-04-23T16:07:16.335Z,22.31
2023-04-23T16:09:24.395Z,22.28
2023-04-23T16:11:29.350Z,22.27
2023-04-23T16:13:36.685Z,22.21
2023-04-23T16:15:43.927Z,22.18
2023-04-23T16:17:49.012Z,22.09
2023-04-23T16:19:53.968Z,22.07
2023-04-23T16:21:58.634Z,21.97
2023-04-23T16:24:04.026Z,21.87
2023-04-23T16:26:11.553Z,21.77
2023-04-23T16:28:16.755Z,21.64
2023-04-23T16:30:24.264Z,21.57
2023-04-23T16:32:29.230Z,21.53
2023-04-23T16:34:34.051Z,21.40
2023-04-23T16:36:39.108Z,21.37
2023-04-23T16:38:47.992Z,21.27
2023-04-23T16:42:59.275Z,21.09
2023-04-23T16:45:04.148Z,21.05
2023-04-23T16:47:14.456Z,20.96
2023-04-23T16:49:19.431Z,20.93
2023-04-23T16:51:24.295Z,20.94
2023-04-23T16:53:29.557Z,20.89
2023-04-23T16:55:35.522Z,20.90
2023-04-23T16:57:40.497Z,20.88
2023-04-23T16:59:45.227Z,20.76
2023-04-23T17:01:51.039Z,20.70
2023-04-23T17:03:58.624Z,20.58
2023-04-23T17:06:12.181Z,20.18
2023-04-23T17:08:17.924Z,20.08
2023-04-23T17:10:22.925Z,19.93
2023-04-23T17:12:28.197Z,19.84
2023-04-23T17:14:33.100Z,19.74
2023-04-23T17:16:38.044Z,19.72
2023-04-23T17:18:43.062Z,19.61
2023-04-23T17:20:50.607Z,19.59
2023-04-23T17:22:56.039Z,19.51
2023-04-23T17:25:01.229Z,19.50
2023-04-23T17:27:06.139Z,19.48
2023-04-23T17:29:11.270Z,19.43
2023-04-23T17:31:16.547Z,19.38
2023-04-23T17:33:24.363Z,19.36
2023-04-23T17:35:29.333Z,19.34
2023-04-23T17:37:37.005Z,19.25
2023-04-23T17:39:41.900Z,19.20
2023-04-23T17:41:46.815Z,19.10
2023-04-23T17:43:52.183Z,18.98
2023-04-23T17:45:57.118Z,18.93
2023-04-23T17:48:02.203Z,18.80
2023-04-23T17:50:11.844Z,18.59
2023-04-23T17:52:16.779Z,18.45
2023-04-23T17:54:24.336Z,18.36
2023-04-23T17:56:29.415Z,18.25
2023-04-23T17:58:36.054Z,18.12
2023-04-23T18:00:44.493Z,17.99
2023-04-23T18:02:50.113Z,17.86
2023-04-23T18:04:55.722Z,17.85
2023-04-23T18:07:00.728Z,17.83
2023-04-23T18:09:06.047Z,17.82
2023-04-23T18:11:13.753Z,17.76
2023-04-23T18:13:21.855Z,17.69
2023-04-23T18:15:29.057Z,17.72
2023-04-23T18:17:34.093Z,17.73
2023-04-23T18:19:39.029Z,17.77
2023-04-23T18:21:45.037Z,17.69
2023-04-23T18:23:50.072Z,17.67
2023-04-23T18:25:55.079Z,17.67
2023-04-23T18:28:02.774Z,17.67
2023-04-23T18:30:12.199Z,17.68
2023-04-23T18:32:31.431Z,17.70
2023-04-23T18:34:44.748Z,17.74
2023-04-23T18:36:53.120Z,17.74
2023-04-23T18:38:58.652Z,17.78
2023-04-23T18:41:04.775Z,17.75
2023-04-23T18:43:12.328Z,17.83
2023-04-23T18:45:17.786Z,17.81
2023-04-23T18:47:23.665Z,17.75
2023-04-23T18:49:48.274Z,17.56
2023-04-23T18:51:54.342Z,17.28
2023-04-23T18:53:59.383Z,16.92
2023-04-23T18:56:04.631Z,16.83
2023-04-23T18:58:12.236Z,16.34
2023-04-23T19:00:22.061Z,16.13
2023-04-23T19:02:35.105Z,15.66
2023-04-23T19:04:43.956Z,14.56
2023-04-23T19:06:50.430Z,13.80
2023-04-23T19:08:56.423Z,13.74
2023-04-23T19:11:01.963Z,13.43
2023-04-23T19:13:09.624Z,13.40
2023-04-23T19:15:25.062Z,13.19
2023-04-23T19:17:36.707Z,13.14
2023-04-23T19:19:42.146Z,13.16
2023-04-23T19:21:47.261Z,13.10
2023-04-23T19:23:54.218Z,13.20
2023-04-23T19:25:59.311Z,13.25
2023-04-23T19:28:04.224Z,13.27
2023-04-23T19:30:12.151Z,13.38
2023-04-23T19:32:19.680Z,13.46
2023-04-23T19:34:24.608Z,13.53
2023-04-23T19:36:29.559Z,13.58
2023-04-23T19:38:34.536Z,13.66
2023-04-23T19:40:39.547Z,13.71
2023-04-23T19:42:44.933Z,13.76
2023-04-23T19:44:50.425Z,13.87
2023-04-23T19:46:58.074Z,13.89
2023-04-23T19:49:06.027Z,13.92
2023-04-23T19:51:11.236Z,13.99
2023-04-23T19:53:16.303Z,14.05
2023-04-23T19:55:26.063Z,14.12
2023-04-23T19:57:31.297Z,14.16
2023-04-23T19:59:36.251Z,14.13
2023-04-23T20:01:41.842Z,14.12
2023-04-23T20:03:48.090Z,14.09
2023-04-23T20:05:58.559Z,14.10
2023-04-23T20:08:04.948Z,14.07
2023-04-23T20:10:11.149Z,14.00
2023-04-23T20:12:16.457Z,14.01
2023-04-23T20:14:21.462Z,13.99
2023-04-23T20:16:28.513Z,13.92
2023-04-23T20:18:36.008Z,13.92
2023-04-23T20:20:42.179Z,13.86
2023-04-23T20:22:49.974Z,13.86
2023-04-23T20:24:54.949Z,13.79
2023-04-23T20:26:59.944Z,13.74
2023-04-23T20:29:05.547Z,13.74
2023-04-23T20:31:10.705Z,13.74
2023-04-23T20:33:16.121Z,13.71
2023-04-23T20:35:21.093Z,13.71
2023-04-23T20:37:27.243Z,13.69
2023-04-23T20:39:34.808Z,13.70
2023-04-23T20:41:40.606Z,13.68
2023-04-23T20:43:46.432Z,13.72
2023-04-23T20:45:51.507Z,13.71
2023-04-23T20:47:57.680Z,13.74
2023-04-23T20:50:02.622Z,13.77
2023-04-23T20:52:09.463Z,13.78
2023-04-23T20:54:14.562Z,13.77
2023-04-23T20:56:22.129Z,13.79
2023-04-23T20:58:27.101Z,13.78
2023-04-23T21:00:32.110Z,13.75
2023-04-23T21:02:38.088Z,13.74
2023-04-23T21:04:43.434Z,13.76
2023-04-23T21:06:48.562Z,13.72
2023-04-23T21:08:53.456Z,13.70
2023-04-23T21:10:58.523Z,13.71
2023-04-23T21:13:06.125Z,13.71
2023-04-23T21:15:12.914Z,13.71
2023-04-23T21:17:18.364Z,13.70
2023-04-23T21:19:23.244Z,13.71
2023-04-23T21:21:29.875Z,13.73
2023-04-23T21:23:35.114Z,13.72
2023-04-23T21:25:42.148Z,13.72
2023-04-23T21:27:48.722Z,13.72
2023-04-23T21:29:56.499Z,13.77
2023-04-23T21:32:01.390Z,13.80
2023-04-23T21:34:06.649Z,13.81
2023-04-23T21:36:11.427Z,13.86
2023-04-23T21:38:16.444Z,13.91
2023-04-23T21:40:21.599Z,13.96
2023-04-23T21:42:26.559Z,13.99
2023-04-23T21:44:32.004Z,14.03
2023-04-23T21:46:39.749Z,14.07
2023-04-23T21:48:47.379Z,14.12
2023-04-23T21:50:53.930Z,14.14
2023-04-23T21:52:59.694Z,14.11
2023-04-23T21:55:06.925Z,14.10
2023-04-23T21:57:11.850Z,14.07
2023-04-23T21:59:16.850Z,13.96
2023-04-23T22:01:21.794Z,13.93
2023-04-23T22:03:37.686Z,13.91
2023-04-23T22:05:44.909Z,13.93
2023-04-23T22:07:50.354Z,13.90
2023-04-23T22:09:57.290Z,13.89
2023-04-23T22:12:04.471Z,13.89
2023-04-23T22:14:09.856Z,13.87
2023-04-23T22:16:27.502Z,13.89
2023-04-23T22:18:36.484Z,13.92
2023-04-23T22:20:44.916Z,13.93
2023-04-23T22:22:49.812Z,13.92
2023-04-23T22:24:54.751Z,13.94
2023-04-23T22:26:59.979Z,13.94
2023-04-23T22:29:07.105Z,13.96
2023-04-23T22:31:11.988Z,13.92
2023-04-23T22:33:16.916Z,13.98
2023-04-23T22:35:24.585Z,13.99
2023-04-23T22:37:29.906Z,14.03
2023-04-23T22:39:34.898Z,14.05
2023-04-23T22:41:42.756Z,14.02
2023-04-23T22:43:47.649Z,14.01
2023-04-23T22:45:52.805Z,13.99
2023-04-23T22:47:58.022Z,13.97
2023-04-23T22:50:02.707Z,13.94
2023-04-23T22:52:12.077Z,13.95
2023-04-23T22:54:17.003Z,13.99
2023-04-23T22:56:22.809Z,13.99
2023-04-23T22:58:27.929Z,13.99
2023-04-23T23:00:32.804Z,14.01
2023-04-23T23:02:37.846Z,14.04
2023-04-23T23:04:43.096Z,14.10
2023-04-23T23:06:48.112Z,14.10
2023-04-23T23:08:55.577Z,14.13
2023-04-23T23:11:00.662Z,14.15
2023-04-23T23:13:05.739Z,14.19
2023-04-23T23:15:11.975Z,14.19
2023-04-23T23:17:16.869Z,14.19
2023-04-23T23:19:21.818Z,14.20
2023-04-23T23:21:26.776Z,14.18
2023-04-23T23:23:31.798Z,14.16
2023-04-23T23:25:39.903Z,14.17
2023-04-23T23:27:45.254Z,14.14
2023-04-23T23:29:50.346Z,14.12
2023-04-23T23:31:55.057Z,14.09
2023-04-23T23:33:59.975Z,14.08
2023-04-23T23:36:05.088Z,14.08
2023-04-23T23:38:09.983Z,14.06
2023-04-23T23:40:15.267Z,14.02
2023-04-23T23:42:22.856Z,14.00
2023-04-23T23:44:27.796Z,13.95
2023-04-23T23:46:32.904Z,13.93
2023-04-23T23:48:37.840Z,13.91
2023-04-23T23:50:42.753Z,13.88
2023-04-23T23:52:47.666Z,13.87
2023-04-23T23:54:52.528Z,13.89
2023-04-23T23:56:57.991Z,13.89
2023-04-23T23:59:05.790Z,13.92
